Time;durP1;ratioP1;P1;durP2;ratioP2;P2;SDS_P1;SDS_P2;PMS_P1;PMS_P2;Temp;Humidity;BMP_temperature;BMP_pressure;BME280_temperature;BME280_humidity;BME280_pressure;Samples;Min_cycle;Max_cycle;Signal;HPM_P1;HPM_P2
2022/10/19 00:01:02;;;;;;;15.57;7.90;;;;;;;6.25;93.37;97605.16;5043949;28;20076;-61
2022/10/19 00:03:29;;;;;;;21.73;9.85;;;;;;;6.01;92.89;97605.72;5045019;28;20595;-60
2022/10/19 00:05:56;;;;;;;20.75;9.98;;;;;;;5.75;92.45;97585.72;5044305;28;20076;-62
2022/10/19 00:08:23;;;;;;;21.92;10.85;;;;;;;5.09;91.56;97512.88;5048523;28;20725;-60
2022/10/19 00:10:50;;;;;;;24.10;11.27;;;;;;;5.42;91.47;97559.88;5048370;28;20091;-60
2022/10/19 00:13:16;;;;;;;22.52;9.50;;;;;;;5.51;91.77;97579.91;5048299;28;20136;-62
2022/10/19 00:15:44;;;;;;;18.58;8.95;;;;;;;5.69;91.81;97598.00;5048280;28;20063;-61
2022/10/19 00:18:10;;;;;;;17.77;8.52;;;;;;;5.62;92.61;97587.50;5048142;28;20549;-60
2022/10/19 00:20:37;;;;;;;15.50;7.93;;;;;;;5.59;92.68;97587.34;5047919;28;20063;-60
2022/10/19 00:23:03;;;;;;;14.50;7.35;;;;;;;5.09;93.84;97569.75;5048326;28;20114;-61
2022/10/19 00:25:30;;;;;;;16.88;8.10;;;;;;;5.52;95.69;97554.03;5047900;28;20133;-62
2022/10/19 00:27:57;;;;;;;11.98;6.68;;;;;;;5.59;96.03;97559.84;5046451;28;20375;-60
2022/10/19 00:30:24;;;;;;;12.60;6.93;;;;;;;5.00;96.49;97464.59;5047561;28;20516;-60
2022/10/19 00:32:50;;;;;;;13.40;7.05;;;;;;;5.71;96.80;97569.06;5048261;28;20057;-60
2022/10/19 00:35:17;;;;;;;13.07;7.53;;;;;;;4.98;97.16;97439.44;5047771;28;20328;-60
2022/10/19 00:37:43;;;;;;;11.68;6.82;;;;;;;5.25;97.36;97494.00;5047683;28;20187;-60
2022/10/19 00:40:10;;;;;;;14.20;7.10;;;;;;;5.26;95.98;97448.91;5047686;28;20057;-60
2022/10/19 00:42:37;;;;;;;14.32;7.00;;;;;;;5.49;96.22;97510.72;5046006;28;20518;-60
2022/10/19 00:45:13;;;;;;;15.75;8.30;;;;;;;5.70;96.00;97539.16;5047297;28;20595;-61
2022/10/19 00:47:42;;;;;;;13.18;7.60;;;;;;;5.74;95.73;97535.41;5047234;28;20122;-61
2022/10/19 00:50:11;;;;;;;13.48;7.75;;;;;;;5.74;95.83;97535.41;5047300;28;20520;-61
2022/10/19 00:52:37;;;;;;;15.57;6.68;;;;;;;5.46;96.45;97481.16;5047074;28;20431;-61
2022/10/19 00:55:06;;;;;;;12.90;7.75;;;;;;;5.79;96.14;97527.00;5045846;28;20136;-60
2022/10/19 00:57:33;;;;;;;15.13;7.78;;;;;;;5.51;95.07;97478.25;5045844;28;20096;-61
2022/10/19 01:00:03;;;;;;;12.02;8.23;;;;;;;5.66;94.74;97505.19;5046005;28;20486;-62
2022/10/19 01:02:30;;;;;;;9.63;5.97;;;;;;;5.34;94.86;97448.09;5045891;28;20081;-62
2022/10/19 01:04:58;;;;;;;16.45;6.50;;;;;;;5.14;95.07;97404.84;5045851;28;20053;-61
2022/10/19 01:07:25;;;;;;;12.07;5.75;;;;;;;5.69;97.68;97510.06;5045700;28;20127;-61
2022/10/19 01:09:53;;;;;;;10.57;5.50;;;;;;;5.39;96.70;97450.66;5046838;28;20095;-61
2022/10/19 01:12:44;;;;;;;9.82;5.75;;;;;;;5.81;96.77;97497.25;5045505;28;20516;-61
2022/10/19 01:15:21;;;;;;;10.07;5.22;;;;;;;5.77;96.17;97501.78;5046967;28;20064;-61
2022/10/19 01:18:21;;;;;;;9.15;5.38;;;;;;;5.76;95.88;97507.59;5046002;28;20093;-60
2022/10/19 01:20:47;;;;;;;14.20;5.35;;;;;;;5.68;96.17;97497.44;5045429;28;20080;-61
2022/10/19 01:23:30;;;;;;;6.80;5.05;;;;;;;5.62;97.00;97487.75;5045786;28;20053;-61
2022/10/19 01:26:15;;;;;;;11.27;5.03;;;;;;;5.60;96.92;97484.53;5046923;28;20524;-61
2022/10/19 01:28:50;;;;;;;8.80;4.97;;;;;;;5.54;98.82;97480.34;5045031;28;20084;-61
2022/10/19 01:31:39;;;;;;;8.07;5.03;;;;;;;5.46;99.77;97467.44;5046855;28;20145;-60
2022/10/19 01:34:33;;;;;;;12.93;5.07;;;;;;;5.58;99.86;97479.34;5045458;28;20077;-61
2022/10/19 01:36:59;;;;;;;7.88;4.50;;;;;;;5.53;100.00;97478.75;5045073;28;20057;-61
2022/10/19 01:40:02;;;;;;;7.18;4.68;;;;;;;5.48;100.00;97470.66;5046912;28;20053;-60
2022/10/19 01:42:53;;;;;;;12.10;5.15;;;;;;;5.40;100.00;97463.25;5046676;28;20053;-60
2022/10/19 01:45:31;;;;;;;10.27;4.47;;;;;;;3.90;100.00;97228.50;5046748;28;20136;-61
2022/10/19 01:48:04;;;;;;;9.52;4.70;;;;;;;5.31;100.00;97459.72;5046505;28;20056;-61
2022/10/19 01:50:39;;;;;;;9.15;4.78;;;;;;;5.46;100.00;97471.00;5046407;28;20057;-61
2022/10/19 01:53:09;;;;;;;9.23;4.85;;;;;;;5.41;100.00;97467.59;5046941;28;20049;-61
2022/10/19 01:55:41;;;;;;;12.88;5.13;;;;;;;5.04;100.00;97421.66;5045334;28;20500;-61
2022/10/19 01:58:12;;;;;;;18.15;6.88;;;;;;;5.35;100.00;97457.94;5046721;28;20132;-61
2022/10/19 02:00:43;;;;;;;15.13;6.90;;;;;;;4.93;100.00;97410.22;5044847;28;20045;-61
2022/10/19 02:03:12;;;;;;;17.08;7.43;;;;;;;4.68;98.15;97374.56;5046604;28;20431;-61
2022/10/19 02:05:40;;;;;;;13.85;7.07;;;;;;;4.99;97.03;97435.53;5045127;28;20176;-62
2022/10/19 02:08:13;;;;;;;14.27;6.45;;;;;;;5.08;96.14;97459.09;5045224;28;20087;-61
2022/10/19 02:10:42;;;;;;;10.77;5.88;;;;;;;5.00;96.27;97470.09;5045003;28;20128;-61
2022/10/19 02:13:12;;;;;;;13.13;5.97;;;;;;;4.43;96.42;97378.91;5046147;28;20084;-60
2022/10/19 02:15:42;;;;;;;11.25;6.03;;;;;;;4.79;96.45;97452.69;5044252;28;20589;-61
2022/10/19 02:18:14;;;;;;;10.45;6.55;;;;;;;4.65;95.85;97431.69;5046286;28;20055;-61
2022/10/19 02:20:40;;;;;;;12.75;5.97;;;;;;;4.60;95.34;97411.81;5045948;28;20076;-61
2022/10/19 02:23:08;;;;;;;12.68;6.28;;;;;;;3.16;95.59;97191.38;5044441;28;20487;-62
2022/10/19 02:25:35;;;;;;;14.85;7.28;;;;;;;4.85;95.29;97451.38;5045684;28;20134;-62
2022/10/19 02:28:03;;;;;;;17.05;6.85;;;;;;;4.79;96.17;97442.50;5044120;28;20107;-61
2022/10/19 02:30:30;;;;;;;15.10;6.57;;;;;;;4.59;96.43;97411.03;5043777;28;20056;-62
2022/10/19 02:32:56;;;;;;;16.40;6.72;;;;;;;4.88;98.08;97453.47;5045507;28;20092;-60
2022/10/19 02:35:23;;;;;;;13.70;6.70;;;;;;;4.83;98.22;97431.69;5044132;28;20155;-62
2022/10/19 02:37:50;;;;;;;14.40;7.15;;;;;;;4.74;99.15;97417.97;5045609;28;20080;-61
2022/10/19 02:40:17;;;;;;;14.68;7.45;;;;;;;4.82;98.99;97405.38;5045447;28;20053;-60
2022/10/19 02:42:49;;;;;;;12.80;5.97;;;;;;;4.81;99.13;97422.94;5045154;28;20238;-62
2022/10/19 02:45:22;;;;;;;8.73;5.03;;;;;;;4.94;99.68;97439.25;5044930;28;20439;-60
2022/10/19 02:47:57;;;;;;;11.13;5.40;;;;;;;4.60;99.65;97374.22;5045432;28;20171;-60
2022/10/19 02:50:24;;;;;;;11.32;5.05;;;;;;;2.25;98.48;96984.66;5043699;28;20060;-61
2022/10/19 02:52:50;;;;;;;10.55;5.22;;;;;;;4.82;99.03;97397.16;5045231;28;20049;-61
2022/10/19 02:55:17;;;;;;;8.02;4.68;;;;;;;5.06;99.58;97427.63;5043810;28;20065;-60
2022/10/19 02:57:44;;;;;;;11.13;5.40;;;;;;;4.71;99.19;97368.41;5044770;28;20069;-61
2022/10/19 03:00:11;;;;;;;9.82;5.20;;;;;;;4.93;99.22;97453.31;5045102;28;20084;-61
2022/10/19 03:02:37;;;;;;;8.70;4.95;;;;;;;4.42;98.93;97344.41;5044659;28;20107;-61
2022/10/19 03:05:04;;;;;;;8.30;4.60;;;;;;;4.75;98.42;97377.59;5045180;28;20110;-62
2022/10/19 03:07:31;;;;;;;11.52;5.85;;;;;;;4.49;97.25;97361.97;5044748;28;20052;-61
2022/10/19 03:09:58;;;;;;;11.15;5.50;;;;;;;4.20;96.79;97298.78;5043372;28;20061;-61
2022/10/19 03:12:25;;;;;;;11.60;5.95;;;;;;;4.60;96.34;97412.63;5036042;28;20094;-60
2022/10/19 03:14:51;;;;;;;11.18;6.05;;;;;;;4.50;96.73;97396.50;5064071;28;20135;-61
2022/10/19 03:17:18;;;;;;;12.50;5.78;;;;;;;3.46;95.74;97406.78;5064157;28;20131;-61
2022/10/19 03:19:45;;;;;;;14.75;5.85;;;;;;;3.02;100.00;97420.53;5064503;28;20064;-61
2022/10/19 03:22:13;;;;;;;12.02;6.10;;;;;;;3.08;99.26;97361.81;5064588;28;20131;-61
2022/10/19 03:24:40;;;;;;;12.95;6.55;;;;;;;3.48;97.60;97417.41;5063108;28;20535;-61
2022/10/19 03:27:06;;;;;;;18.02;6.82;;;;;;;3.30;98.14;97416.50;5064528;28;20076;-62
2022/10/19 03:29:33;;;;;;;13.10;6.32;;;;;;;2.05;97.59;97192.84;5064263;28;20139;-61
2022/10/19 03:31:59;;;;;;;12.82;6.35;;;;;;;3.43;96.28;97421.06;5064056;28;20592;-62
2022/10/19 03:34:26;;;;;;;18.73;7.03;;;;;;;3.49;96.20;97413.53;5064699;28;20080;-61
2022/10/19 03:36:53;;;;;;;16.13;8.57;;;;;;;2.45;96.67;97235.53;5066745;28;20173;-62
2022/10/19 03:39:19;;;;;;;27.13;10.32;;;;;;;3.54;97.13;97427.88;5063256;28;20242;-61
2022/10/19 03:41:46;;;;;;;19.55;10.40;;;;;;;3.59;97.28;97403.09;5024977;28;20060;-62
2022/10/19 03:44:12;;;;;;;18.25;9.63;;;;;;;3.76;98.65;97400.41;5060642;28;20048;-61
2022/10/19 03:46:39;;;;;;;21.73;10.82;;;;;;;3.89;98.62;97407.69;5062517;28;20083;-62
2022/10/19 03:49:06;;;;;;;20.98;10.52;;;;;;;4.00;100.00;97392.56;5064085;28;20164;-60
2022/10/19 03:51:34;;;;;;;18.58;10.00;;;;;;;4.03;100.00;97396.63;5064504;28;20157;-60
2022/10/19 03:54:04;;;;;;;16.00;8.40;;;;;;;4.09;100.00;97390.69;5064428;28;20045;-60
2022/10/19 03:56:33;;;;;;;19.40;8.00;;;;;;;4.16;100.00;97388.25;5064074;28;20584;-60
2022/10/19 03:59:02;;;;;;;13.15;7.03;;;;;;;4.22;100.00;97384.22;5059693;28;20566;-60
2022/10/19 04:01:38;;;;;;;15.70;6.90;;;;;;;4.26;100.00;97384.41;5043742;28;20080;-61
2022/10/19 04:04:15;;;;;;;11.13;6.60;;;;;;;4.18;100.00;97377.78;5043889;28;20084;-60
2022/10/19 04:06:44;;;;;;;9.68;5.35;;;;;;;4.43;100.00;97385.22;5042184;28;20056;-61
2022/10/19 04:09:14;;;;;;;14.68;7.80;;;;;;;4.47;100.00;97375.19;5043934;28;20139;-61
2022/10/19 04:11:41;;;;;;;20.42;9.85;;;;;;;4.26;98.97;97379.72;5042495;28;20101;-60
2022/10/19 04:14:11;;;;;;;19.58;9.63;;;;;;;4.25;98.94;97377.31;5043951;28;20322;-60
2022/10/19 04:16:52;;;;;;;21.23;9.57;;;;;;;4.22;96.87;97389.72;5043899;28;20052;-63
2022/10/19 04:19:19;;;;;;;19.20;8.63;;;;;;;3.42;93.54;97268.88;5042426;28;20049;-61
2022/10/19 04:21:47;;;;;;;26.90;8.15;;;;;;;4.07;91.18;97390.19;5043889;28;20068;-61
2022/10/19 04:24:17;;;;;;;17.50;8.98;;;;;;;3.29;91.65;97296.38;5044209;28;20122;-60
2022/10/19 04:26:49;;;;;;;25.05;10.02;;;;;;;3.88;92.14;97378.69;5043859;28;20093;-61
2022/10/19 04:29:18;;;;;;;55.25;27.52;;;;;;;3.77;93.63;97380.13;5043582;28;20095;-60
2022/10/19 04:31:45;;;;;;;49.78;25.67;;;;;;;3.84;92.72;97372.22;5042543;28;20483;-60
2022/10/19 04:34:11;;;;;;;42.47;23.60;;;;;;;3.72;93.74;97374.78;5044122;28;20470;-61
2022/10/19 04:36:38;;;;;;;24.48;12.02;;;;;;;3.10;93.72;97302.09;5043499;28;20057;-61
2022/10/19 04:39:05;;;;;;;20.42;9.27;;;;;;;3.54;94.63;97373.09;5042555;28;20053;-61
2022/10/19 04:41:33;;;;;;;24.40;10.63;;;;;;;2.36;94.13;97185.47;5043551;28;20508;-61
2022/10/19 04:44:02;;;;;;;16.85;7.65;;;;;;;3.62;94.58;97369.59;5043819;28;20083;-61
2022/10/19 04:46:29;;;;;;;17.35;8.63;;;;;;;3.11;94.47;97307.25;5042218;28;20057;-61
2022/10/19 04:48:56;;;;;;;12.63;8.32;;;;;;;3.43;95.71;97360.03;5041937;28;20060;-61
2022/10/19 04:51:24;;;;;;;21.05;9.57;;;;;;;3.37;96.47;97345.66;5043685;28;20049;-61
2022/10/19 04:53:52;;;;;;;20.80;9.02;;;;;;;3.58;96.01;97367.81;5047012;28;20115;-60
2022/10/19 04:56:28;;;;;;;31.05;10.85;;;;;;;3.57;96.64;97380.72;5046005;28;20607;-61
2022/10/19 04:58:58;;;;;;;28.45;12.77;;;;;;;3.71;96.55;97367.72;5048997;28;20072;-61
2022/10/19 05:01:27;;;;;;;35.17;15.50;;;;;;;3.77;96.96;97355.47;5065731;28;20443;-62
2022/10/19 05:03:56;;;;;;;35.45;14.18;;;;;;;3.74;96.40;97339.69;5067683;28;20247;-60
2022/10/19 05:06:22;;;;;;;25.60;13.40;;;;;;;3.96;96.35;97369.69;5065851;28;20129;-60
2022/10/19 05:08:50;;;;;;;24.30;13.35;;;;;;;4.06;97.03;97363.88;5067178;28;20417;-60
2022/10/19 05:11:17;;;;;;;25.83;13.93;;;;;;;4.07;98.30;97349.06;5065900;28;20543;-60
2022/10/19 05:13:44;;;;;;;30.50;15.65;;;;;;;4.36;98.42;97368.41;5067290;28;20131;-61
2022/10/19 05:16:18;;;;;;;35.35;16.20;;;;;;;4.00;98.23;97277.47;5067042;28;20129;-60
2022/10/19 05:18:58;;;;;;;;;;;;;;;4.72;98.93;97353.56;5067723;28;20140;-61
2022/10/19 05:21:27;;;;;;;28.15;13.32;;;;;;;4.41;100.00;97294.22;5066706;28;19924;-61
2022/10/19 05:23:55;;;;;;;27.92;11.93;;;;;;;4.65;100.00;97310.97;5065655;28;20583;-61
2022/10/19 05:26:25;;;;;;;22.55;10.43;;;;;;;5.19;100.00;97353.28;5066889;28;20072;-60
2022/10/19 05:28:58;;;;;;;17.88;7.82;;;;;;;4.97;99.49;97300.56;5067110;28;20079;-60
2022/10/19 05:31:26;;;;;;;;;;;;;;;5.48;98.70;97355.28;5067412;28;20052;-62
2022/10/19 05:33:52;;;;;;;61.08;28.02;;;;;;;5.54;95.90;97359.47;5065224;28;19990;-61
2022/10/19 05:36:19;;;;;;;52.28;23.27;;;;;;;5.64;93.28;97359.09;5066254;28;20048;-61
2022/10/19 05:38:48;;;;;;;61.67;23.90;;;;;;;5.71;93.87;97359.38;5065209;28;20483;-60
2022/10/19 05:41:16;;;;;;;56.10;20.50;;;;;;;5.90;93.40;97362.53;5066502;28;20419;-61
2022/10/19 05:43:44;;;;;;;49.53;19.20;;;;;;;6.04;91.88;97363.91;5066243;28;20102;-61
2022/10/19 05:46:16;;;;;;;33.65;13.73;;;;;;;6.01;92.14;97308.75;5066210;28;20160;-61
2022/10/19 05:48:43;;;;;;;25.40;10.13;;;;;;;6.40;93.35;97344.09;5066363;28;20139;-61
2022/10/19 05:51:13;;;;;;;17.30;8.10;;;;;;;6.49;93.12;97325.53;5066189;28;20137;-60
2022/10/19 05:53:40;;;;;;;12.90;7.72;;;;;;;6.70;93.10;97325.53;5066197;28;20144;-60
2022/10/19 05:56:11;;;;;;;13.90;7.35;;;;;;;6.31;92.45;97225.03;5065878;28;20053;-61
2022/10/19 05:58:38;;;;;;;15.63;7.10;;;;;;;6.44;92.46;97245.97;5065958;28;20519;-61
2022/10/19 06:01:04;;;;;;;25.92;8.95;;;;;;;6.77;89.03;97277.03;5033293;28;20045;-60
2022/10/19 06:03:31;;;;;;;17.17;8.70;;;;;;;6.77;89.29;97260.50;5038852;28;20487;-58
2022/10/19 06:06:04;;;;;;;22.77;8.18;;;;;;;7.65;88.51;97346.94;5030521;28;20056;-58
2022/10/19 06:08:31;;;;;;;25.05;9.50;;;;;;;7.85;87.68;97344.41;5026779;28;20085;-59
2022/10/19 06:11:12;;;;;;;18.20;9.70;;;;;;;8.02;87.12;97344.19;5025710;28;20491;-60
2022/10/19 06:13:41;;;;;;;23.00;10.43;;;;;;;8.11;86.31;97336.59;5031910;28;20111;-59
2022/10/19 06:16:09;;;;;;;19.85;9.40;;;;;;;8.26;86.47;97339.47;5037237;28;20141;-57
2022/10/19 06:18:36;;;;;;;17.58;8.70;;;;;;;8.60;84.58;97338.13;5036773;28;20156;-58
2022/10/19 06:21:06;;;;;;;32.42;9.68;;;;;;;8.58;83.53;97302.56;5022974;28;20049;-58
2022/10/19 06:23:34;;;;;;;23.58;8.98;;;;;;;9.01;83.11;97326.66;5057024;28;20087;-58
2022/10/19 06:26:02;;;;;;;28.80;10.70;;;;;;;9.17;82.23;97331.06;5041687;28;20343;-60
2022/10/19 06:28:29;;;;;;;29.98;11.25;;;;;;;9.35;81.81;97317.72;5025792;28;20111;-59
2022/10/19 06:30:59;;;;;;;43.47;13.25;;;;;;;9.38;80.38;97292.13;5044176;28;20083;-62
2022/10/19 06:33:27;;;;;;;27.58;10.20;;;;;;;9.72;80.24;97296.91;5036929;28;20057;-61
2022/10/19 06:35:53;;;;;;;20.58;8.18;;;;;;;9.38;79.33;97187.06;5024689;28;20524;-59
2022/10/19 06:38:20;;;;;;;19.60;7.00;;;;;;;10.00;78.49;97271.88;5026640;28;20477;-61
2022/10/19 06:40:48;;;;;;;23.98;14.25;;;;;;;10.49;78.03;97315.34;5045083;28;20045;-61
2022/10/19 06:43:15;;;;;;;22.20;8.63;;;;;;;10.09;78.42;97317.59;5045211;28;20553;-59
2022/10/19 06:45:41;;;;;;;36.65;13.13;;;;;;;9.90;78.28;97253.88;5044751;28;20064;-60
2022/10/19 06:48:08;;;;;;;25.42;8.75;;;;;;;9.67;79.58;97268.72;5038197;28;20492;-65
2022/10/19 06:50:34;;;;;;;26.23;9.65;;;;;;;9.59;82.49;97325.03;5025050;28;20539;-58
2022/10/19 06:53:01;;;;;;;13.88;6.40;;;;;;;7.77;79.72;96923.50;5025746;28;20057;-59
2022/10/19 06:55:28;;;;;;;13.15;6.45;;;;;;;9.78;81.05;97284.44;5024741;28;20617;-61
2022/10/19 06:57:54;;;;;;;11.85;6.05;;;;;;;10.09;79.80;97273.31;5024649;28;20053;-59
2022/10/19 07:00:21;;;;;;;13.57;5.38;;;;;;;10.48;79.11;97310.97;5024592;28;20099;-59
2022/10/19 07:02:48;;;;;;;14.18;6.20;;;;;;;10.81;77.66;97298.59;5024572;28;20085;-58
2022/10/19 07:05:14;;;;;;;12.02;5.55;;;;;;;10.99;76.92;97294.97;5024469;28;20435;-60
2022/10/19 07:07:41;;;;;;;9.32;5.13;;;;;;;11.14;75.68;97301.59;5025350;28;20076;-58
2022/10/19 07:10:08;;;;;;;11.20;5.78;;;;;;;10.76;74.44;97182.50;5027419;28;20542;-62
2022/10/19 07:12:34;;;;;;;14.73;6.15;;;;;;;11.31;73.50;97284.47;5024934;28;20483;-59
2022/10/19 07:15:01;;;;;;;14.90;5.65;;;;;;;11.54;72.95;97243.69;5023182;28;20160;-59
2022/10/19 07:17:28;;;;;;;10.68;5.18;;;;;;;11.35;71.94;97157.78;5033788;28;20110;-61
2022/10/19 07:19:55;;;;;;;10.02;5.00;;;;;;;12.19;71.04;97270.09;5026226;28;20057;-64
2022/10/19 07:22:21;;;;;;;11.27;4.72;;;;;;;11.70;70.92;97147.22;5025288;28;20053;-60
2022/10/19 07:24:53;;;;;;;14.05;5.47;;;;;;;12.76;70.15;97289.13;5024468;28;20049;-59
2022/10/19 07:27:20;;;;;;;10.05;5.20;;;;;;;12.28;69.21;97167.88;5025067;28;20437;-62
2022/10/19 07:29:46;;;;;;;11.00;4.70;;;;;;;13.09;68.96;97286.34;5022734;28;20053;-59
2022/10/19 07:32:13;;;;;;;11.88;4.63;;;;;;;12.16;68.98;97126.44;5024507;28;20045;-63
2022/10/19 07:34:40;;;;;;;8.45;4.20;;;;;;;12.77;68.40;97207.31;5025376;28;20049;-61
2022/10/19 07:37:06;;;;;;;8.50;4.57;;;;;;;11.80;70.16;97135.50;5024306;28;20509;-62
2022/10/19 07:39:33;;;;;;;7.80;4.35;;;;;;;13.08;69.18;97268.09;5024183;28;20130;-60
2022/10/19 07:41:59;;;;;;;9.35;4.57;;;;;;;13.33;68.74;97266.34;5023023;28;20707;-61
2022/10/19 07:44:26;;;;;;;10.13;6.45;;;;;;;13.50;67.98;97268.50;5023637;28;20088;-60
2022/10/19 07:46:53;;;;;;;12.30;5.80;;;;;;;13.41;68.17;97226.28;5021984;28;20145;-61
2022/10/19 07:49:20;;;;;;;11.50;5.07;;;;;;;13.07;68.04;97149.66;5024707;28;20111;-63
2022/10/19 07:51:47;;;;;;;16.75;5.35;;;;;;;13.71;67.73;97228.91;5022944;28;20476;-61
2022/10/19 07:54:14;;;;;;;7.20;3.95;;;;;;;14.12;67.43;97257.44;5023734;28;20049;-63
2022/10/19 07:56:40;;;;;;;8.13;4.50;;;;;;;14.37;66.20;97255.66;5023027;28;20129;-62
2022/10/19 07:59:09;;;;;;;6.47;4.40;;;;;;;14.22;65.70;97215.72;5024123;28;20091;-59
2022/10/19 08:01:40;;;;;;;9.40;5.82;;;;;;;14.70;65.29;97252.63;5060633;28;20600;-60
2022/10/19 08:04:07;;;;;;;13.52;5.50;;;;;;;14.93;63.73;97228.00;5058224;28;20118;-59
2022/10/19 08:06:53;;;;;;;9.55;4.07;;;;;;;15.26;61.57;97243.63;5026446;28;20502;-59
2022/10/19 08:09:20;;;;;;;5.70;3.70;;;;;;;14.98;60.96;97242.34;5023786;28;20054;-60
2022/10/19 08:12:07;;;;;;;7.22;3.83;;;;;;;14.83;61.89;97245.50;5040438;28;20061;-61
2022/10/19 08:14:40;;;;;;;11.93;5.40;;;;;;;14.67;60.83;97164.16;5043215;28;20556;-60
2022/10/19 08:17:10;;;;;;;8.57;4.32;;;;;;;15.47;60.60;97224.97;5025455;28;20623;-61
2022/10/19 08:19:41;;;;;;;8.75;5.07;;;;;;;15.18;59.51;97161.88;5023748;28;20504;-58
2022/10/19 08:22:09;;;;;;;6.32;4.18;;;;;;;15.58;58.12;97172.69;5024364;28;20054;-60
2022/10/19 08:24:36;;;;;;;6.82;4.20;;;;;;;16.28;57.01;97219.31;5023622;28;20072;-60
2022/10/19 08:27:03;;;;;;;9.95;4.13;;;;;;;16.32;55.34;97209.69;5039654;28;20540;-62
2022/10/19 08:29:29;;;;;;;8.63;4.18;;;;;;;16.57;53.93;97210.44;5047707;28;20472;-62
2022/10/19 08:31:57;;;;;;;5.15;4.00;;;;;;;16.69;52.71;97194.41;5047317;28;20060;-61
2022/10/19 08:34:24;;;;;;;6.18;4.43;;;;;;;17.03;52.65;97201.03;5032419;28;20132;-61
2022/10/19 08:36:50;;;;;;;5.95;3.80;;;;;;;17.22;50.91;97206.09;5040303;28;20131;-62
2022/10/19 08:39:17;;;;;;;6.65;3.60;;;;;;;17.41;49.20;97185.97;5045881;28;20062;-60
2022/10/19 08:42:12;;;;;;;8.75;3.40;;;;;;;17.58;49.40;97190.66;5047038;28;20084;-61
2022/10/19 08:44:51;;;;;;;6.05;3.90;;;;;;;17.55;49.21;97202.69;5041724;28;20132;-61
2022/10/19 08:47:48;;;;;;;8.63;3.95;;;;;;;17.85;48.46;97194.44;5027099;28;20084;-62
2022/10/19 08:50:18;;;;;;;7.85;4.05;;;;;;;17.90;47.46;97194.00;5029741;28;20594;-62
2022/10/19 08:52:52;;;;;;;6.80;3.38;;;;;;;17.99;49.37;97185.91;5044630;28;20079;-60
2022/10/19 08:55:28;;;;;;;8.98;3.95;;;;;;;17.72;49.05;97163.34;5027399;28;20089;-60
2022/10/19 08:58:13;;;;;;;11.88;4.38;;;;;;;18.09;48.87;97182.22;5031609;28;20083;-60
2022/10/19 09:00:48;;;;;;;7.55;3.80;;;;;;;18.17;48.02;97186.53;5027757;28;20053;-62
2022/10/19 09:03:26;;;;;;;6.82;3.63;;;;;;;17.81;48.17;97129.25;5047423;28;20122;-63
2022/10/19 09:06:43;;;;;;;7.70;4.03;;;;;;;18.50;48.59;97163.34;5047044;28;20448;-60
2022/10/19 09:09:12;;;;;;;6.50;4.40;;;;;;;18.70;46.68;97155.88;5025874;28;20049;-61
2022/10/19 09:11:46;;;;;;;4.82;3.47;;;;;;;18.84;46.52;97166.91;5027052;28;20520;-60
2022/10/19 09:14:35;;;;;;;6.57;4.13;;;;;;;18.98;46.08;97158.31;5025521;28;20159;-61
2022/10/19 09:17:10;;;;;;;8.95;3.83;;;;;;;19.03;45.64;97168.28;5026934;28;20108;-60
2022/10/19 09:19:36;;;;;;;12.30;5.22;;;;;;;18.80;45.46;97101.59;5026661;28;20065;-59
2022/10/19 09:22:28;;;;;;;9.18;4.75;;;;;;;19.24;44.97;97151.09;5026803;28;20073;-61
2022/10/19 09:25:04;;;;;;;10.00;4.00;;;;;;;19.51;44.58;97151.91;5026678;28;20081;-59
2022/10/19 09:27:38;;;;;;;6.72;3.83;;;;;;;19.21;43.71;97140.69;5026780;28;20081;-59
2022/10/19 09:30:26;;;;;;;8.73;3.85;;;;;;;19.01;44.37;97142.63;5026744;28;20057;-60
2022/10/19 09:33:05;;;;;;;5.75;3.08;;;;;;;19.40;43.56;97146.47;5026581;28;20053;-59
2022/10/19 09:35:37;;;;;;;4.35;3.05;;;;;;;19.60;42.38;97135.28;5024947;28;20057;-60
2022/10/19 09:38:06;;;;;;;5.13;2.93;;;;;;;19.72;42.45;97131.06;5026645;28;20136;-60
2022/10/19 09:40:34;;;;;;;7.68;3.72;;;;;;;19.82;42.39;97130.09;5023794;28;20057;-58
2022/10/19 09:43:18;;;;;;;3.90;2.78;;;;;;;19.62;41.95;97126.44;5026544;28;20150;-62
2022/10/19 09:45:50;;;;;;;;;;;;;;;19.80;42.67;97126.91;5025214;28;20136;-60
2022/10/19 09:48:52;;;;;;;9.23;3.13;;;;;;;19.79;41.36;97122.53;5026446;28;19964;-61
2022/10/19 09:51:20;;;;;;;6.35;3.65;;;;;;;19.65;41.17;97075.00;5042989;28;20138;-61
2022/10/19 09:53:50;;;;;;;8.13;3.35;;;;;;;19.93;40.34;97077.28;5024382;28;20136;-61
2022/10/19 09:56:27;;;;;;;6.93;4.00;;;;;;;20.20;39.56;97080.78;5044332;28;20503;-62
2022/10/19 09:58:56;;;;;;;5.88;3.50;;;;;;;20.67;39.78;97108.34;5045814;28;20058;-62
2022/10/19 10:01:33;;;;;;;10.88;6.30;;;;;;;20.88;39.64;97107.84;5061124;28;20123;-61
2022/10/19 10:04:14;;;;;;;14.50;7.80;;;;;;;20.82;39.17;97103.97;5066259;28;20052;-60
2022/10/19 10:06:43;;;;;;;10.43;5.32;;;;;;;20.95;39.54;97101.28;5066000;28;20663;-60
2022/10/19 10:09:18;;;;;;;7.50;4.68;;;;;;;21.08;39.27;97088.13;5064597;28;20152;-60
2022/10/19 10:11:48;;;;;;;5.32;3.53;;;;;;;21.17;38.83;97088.31;5065714;28;20131;-61
2022/10/19 10:14:35;;;;;;;6.78;3.50;;;;;;;21.21;38.57;97086.22;5065794;28;20066;-60
2022/10/19 10:17:05;;;;;;;3.65;2.70;;;;;;;21.40;38.66;97078.91;5065788;28;20123;-61
2022/10/19 10:19:34;;;;;;;6.75;2.70;;;;;;;21.54;37.48;97070.88;5065514;28;20084;-59
2022/10/19 10:22:03;;;;;;;4.60;2.92;;;;;;;21.56;36.60;97062.75;5064264;28;20082;-61
2022/10/19 10:24:32;;;;;;;6.10;2.83;;;;;;;21.63;37.01;97062.59;5064831;28;20728;-60
2022/10/19 10:27:01;;;;;;;5.38;3.63;;;;;;;21.41;35.46;97055.91;5065374;28;20072;-61
2022/10/19 10:29:36;;;;;;;5.30;3.05;;;;;;;21.56;34.84;97053.53;5065245;28;20411;-61
2022/10/19 10:32:18;;;;;;;5.00;3.70;;;;;;;21.47;35.55;97050.53;5064972;28;20539;-62
2022/10/19 10:35:06;;;;;;;6.47;3.75;;;;;;;20.96;33.98;96956.41;5063894;28;20053;-63
2022/10/19 10:37:46;;;;;;;4.90;3.10;;;;;;;21.85;34.50;97049.53;5064792;28;20084;-64
2022/10/19 10:40:31;;;;;;;5.63;3.75;;;;;;;21.82;32.74;97047.59;5063466;28;20565;-62
2022/10/19 10:43:05;;;;;;;4.65;2.92;;;;;;;21.90;32.51;97043.38;5064366;28;20096;-62
2022/10/19 10:45:37;;;;;;;3.20;2.80;;;;;;;21.99;32.21;97012.47;5064665;28;20129;-65
2022/10/19 10:48:22;;;;;;;5.80;3.13;;;;;;;22.35;31.58;97029.97;5065180;28;20117;-63
2022/10/19 10:50:50;;;;;;;5.78;3.67;;;;;;;21.17;31.37;96879.81;5064799;28;20326;-64
2022/10/19 10:53:42;;;;;;;6.20;3.17;;;;;;;22.02;31.68;97027.72;5063685;28;20052;-66
2022/10/19 10:56:32;;;;;;;4.63;3.10;;;;;;;22.04;31.69;96992.19;5047417;28;20281;-65
2022/10/19 10:59:25;;;;;;;3.30;2.63;;;;;;;22.29;31.84;97012.00;5043279;28;20534;-63
2022/10/19 11:01:57;;;;;;;9.33;3.13;;;;;;;22.54;31.89;97002.03;5059295;28;20591;-61
2022/10/19 11:04:31;;;;;;;6.03;3.10;;;;;;;22.48;31.22;96977.13;5064495;28;20052;-61
2022/10/19 11:07:06;;;;;;;10.05;3.08;;;;;;;22.15;31.59;96888.25;5063382;28;20139;-63
2022/10/19 11:09:37;;;;;;;8.27;5.30;;;;;;;22.59;30.41;96965.53;5065066;28;20443;-61
2022/10/19 11:12:11;;;;;;;4.93;3.15;;;;;;;23.00;30.95;96996.50;5064461;28;20052;-63
2022/10/19 11:14:56;;;;;;;3.75;3.22;;;;;;;22.41;31.14;96985.03;5063961;28;20485;-62
2022/10/19 11:17:35;;;;;;;10.82;3.10;;;;;;;21.76;32.16;96914.03;5025144;28;20475;-68
2022/10/19 11:20:06;;;;;;;7.35;4.15;;;;;;;22.64;32.70;96978.28;5024893;28;20087;-62
2022/10/19 11:22:47;;;;;;;9.23;3.47;;;;;;;22.53;32.16;96938.31;5024733;28;20453;-61
2022/10/19 11:25:14;;;;;;;7.05;3.80;;;;;;;22.60;32.44;96986.91;5022697;28;20089;-64
2022/10/19 11:28:05;;;;;;;6.93;3.97;;;;;;;22.89;31.73;96983.97;5024315;28;20081;-64
2022/10/19 11:30:55;;;;;;;5.68;3.53;;;;;;;22.62;32.08;96986.44;5024022;28;20111;-62
2022/10/19 11:33:39;;;;;;;6.25;3.03;;;;;;;22.82;31.67;96984.19;5023981;28;20524;-61
2022/10/19 11:36:18;;;;;;;4.07;2.67;;;;;;;23.03;31.30;96983.50;5022669;28;20532;-60
2022/10/19 11:39:08;;;;;;;5.40;3.17;;;;;;;22.87;30.74;96950.53;5023786;28;20504;-63
2022/10/19 11:41:49;;;;;;;5.72;3.92;;;;;;;22.69;31.35;96912.78;5024424;28;20140;-64
2022/10/19 11:44:35;;;;;;;3.80;3.30;;;;;;;23.21;30.53;96966.72;5024239;28;20111;-68
2022/10/19 11:47:14;;;;;;;3.35;2.78;;;;;;;22.95;30.29;96962.38;5023784;28;20061;-63
2022/10/19 11:49:58;;;;;;;6.00;3.90;;;;;;;22.94;29.88;96957.94;5023808;28;20088;-61
2022/10/19 11:52:33;;;;;;;;;;;;;;;22.75;29.95;96956.16;5024330;28;20060;-61